sensor_id;sensor_type;location;lat;lon;timestamp;pressure;altitude;pressure_sealevel;temperature;humidity
43312;BME280;30041;48.300;16.352;2023-03-31T00:00:04;99382.31;;;22.01;41.60
43312;BME280;30041;48.300;16.352;2023-03-31T00:02:30;99368.81;;;22.01;41.69
43312;BME280;30041;48.300;16.352;2023-03-31T00:04:56;99371.22;;;21.97;41.66
43312;BME280;30041;48.300;16.352;2023-03-31T00:07:21;99380.69;;;22.00;41.64
43312;BME280;30041;48.300;16.352;2023-03-31T00:09:47;99376.91;;;22.01;41.53
43312;BME280;30041;48.300;16.352;2023-03-31T00:12:14;99384.19;;;22.00;41.56
43312;BME280;30041;48.300;16.352;2023-03-31T00:14:40;99378.22;;;21.98;41.57
43312;BME280;30041;48.300;16.352;2023-03-31T00:17:07;99377.72;;;22.01;41.56
43312;BME280;30041;48.300;16.352;2023-03-31T00:19:33;99379.38;;;22.02;41.73
43312;BME280;30041;48.300;16.352;2023-03-31T00:21:59;99385.81;;;22.01;41.32
43312;BME280;30041;48.300;16.352;2023-03-31T00:24:24;99376.66;;;22.02;41.50
43312;BME280;30041;48.300;16.352;2023-03-31T00:26:50;99366.91;;;22.01;41.61
43312;BME280;30041;48.300;16.352;2023-03-31T00:29:15;99372.31;;;22.01;41.71
43312;BME280;30041;48.300;16.352;2023-03-31T00:31:41;99379.38;;;22.02;41.57
43312;BME280;30041;48.300;16.352;2023-03-31T00:34:07;99375.59;;;22.03;41.66
43312;BME280;30041;48.300;16.352;2023-03-31T00:36:32;99372.91;;;22.03;41.43
43312;BME280;30041;48.300;16.352;2023-03-31T00:39:00;99361.28;;;22.03;41.55
43312;BME280;30041;48.300;16.352;2023-03-31T00:41:27;99359.41;;;22.03;41.52
43312;BME280;30041;48.300;16.352;2023-03-31T00:44:08;99357.78;;;22.02;41.63
43312;BME280;30041;48.300;16.352;2023-03-31T00:49:16;99347.56;;;22.04;41.60
43312;BME280;30041;48.300;16.352;2023-03-31T00:51:44;99350.00;;;22.06;41.44
43312;BME280;30041;48.300;16.352;2023-03-31T00:54:09;99353.19;;;22.03;41.56
43312;BME280;30041;48.300;16.352;2023-03-31T00:56:37;99339.47;;;22.04;41.55
43312;BME280;30041;48.300;16.352;2023-03-31T00:59:07;99339.47;;;22.04;41.53
43312;BME280;30041;48.300;16.352;2023-03-31T01:01:34;99337.34;;;22.06;41.60
43312;BME280;30041;48.300;16.352;2023-03-31T01:04:01;99348.13;;;22.06;41.32
43312;BME280;30041;48.300;16.352;2023-03-31T01:06:28;99346.25;;;22.07;41.45
43312;BME280;30041;48.300;16.352;2023-03-31T01:08:53;99339.75;;;22.08;41.32
43312;BME280;30041;48.300;16.352;2023-03-31T01:11:21;99340.03;;;22.06;41.50
43312;BME280;30041;48.300;16.352;2023-03-31T01:13:50;99328.41;;;22.06;41.37
43312;BME280;30041;48.300;16.352;2023-03-31T01:16:17;99324.41;;;22.08;41.32
43312;BME280;30041;48.300;16.352;2023-03-31T01:18:43;99317.38;;;22.07;41.46
43312;BME280;30041;48.300;16.352;2023-03-31T01:40:08;99313.84;;;22.07;41.33
43312;BME280;30041;48.300;16.352;2023-03-31T01:42:58;99314.66;;;22.07;41.36
43312;BME280;30041;48.300;16.352;2023-03-31T01:45:53;99306.28;;;22.04;41.53
43312;BME280;30041;48.300;16.352;2023-03-31T01:48:47;99309.78;;;22.04;41.54
43312;BME280;30041;48.300;16.352;2023-03-31T01:51:28;99297.91;;;22.05;41.31
43312;BME280;30041;48.300;16.352;2023-03-31T01:54:02;99301.97;;;22.08;41.32
43312;BME280;30041;48.300;16.352;2023-03-31T01:56:36;99292.25;;;22.07;41.33
43312;BME280;30041;48.300;16.352;2023-03-31T01:59:10;99293.06;;;22.07;41.10
43312;BME280;30041;48.300;16.352;2023-03-31T02:01:52;99286.63;;;22.08;41.45
43312;BME280;30041;48.300;16.352;2023-03-31T02:04:22;99281.22;;;22.08;41.31
43312;BME280;30041;48.300;16.352;2023-03-31T02:06:54;99279.34;;;22.09;41.26
43312;BME280;30041;48.300;16.352;2023-03-31T02:09:26;99270.44;;;22.08;41.35
43312;BME280;30041;48.300;16.352;2023-03-31T02:11:54;99266.66;;;22.09;41.15
43312;BME280;30041;48.300;16.352;2023-03-31T02:14:25;99265.34;;;22.12;41.07
43312;BME280;30041;48.300;16.352;2023-03-31T02:16:55;99261.03;;;22.11;41.13
43312;BME280;30041;48.300;16.352;2023-03-31T02:19:22;99259.94;;;22.12;41.20
43312;BME280;30041;48.300;16.352;2023-03-31T02:21:48;99259.94;;;22.12;41.28
43312;BME280;30041;48.300;16.352;2023-03-31T02:24:15;99261.81;;;22.11;41.30
43312;BME280;30041;48.300;16.352;2023-03-31T02:27:06;99262.91;;;22.10;41.32
43312;BME280;30041;48.300;16.352;2023-03-31T02:29:33;99251.28;;;22.10;41.30
43312;BME280;30041;48.300;16.352;2023-03-31T02:32:13;99247.75;;;22.09;41.28
43312;BME280;30041;48.300;16.352;2023-03-31T02:34:40;99252.13;;;22.10;41.21
43312;BME280;30041;48.300;16.352;2023-03-31T02:37:06;99252.91;;;22.11;41.35
43312;BME280;30041;48.300;16.352;2023-03-31T02:39:34;99246.72;;;22.10;41.37
43312;BME280;30041;48.300;16.352;2023-03-31T02:42:02;99241.84;;;22.12;40.96
43312;BME280;30041;48.300;16.352;2023-03-31T02:44:28;99246.72;;;22.10;41.29
43312;BME280;30041;48.300;16.352;2023-03-31T02:46:53;99239.16;;;22.12;41.20
43312;BME280;30041;48.300;16.352;2023-03-31T02:49:20;99246.44;;;22.12;41.29
43312;BME280;30041;48.300;16.352;2023-03-31T02:54:49;99239.66;;;22.09;41.26
43312;BME280;30041;48.300;16.352;2023-03-31T02:57:43;99234.03;;;22.11;41.21
43312;BME280;30041;48.300;16.352;2023-03-31T03:00:51;99230.75;;;22.09;41.26
43312;BME280;30041;48.300;16.352;2023-03-31T03:06:24;99233.22;;;22.10;41.20
43312;BME280;30041;48.300;16.352;2023-03-31T03:11:50;99229.78;;;22.15;40.87
43312;BME280;30041;48.300;16.352;2023-03-31T03:14:35;99231.06;;;22.12;41.10
43312;BME280;30041;48.300;16.352;2023-03-31T03:17:16;99230.00;;;22.13;41.29
43312;BME280;30041;48.300;16.352;2023-03-31T03:19:50;99229.78;;;22.15;41.23
43312;BME280;30041;48.300;16.352;2023-03-31T03:22:17;99220.84;;;22.14;41.09
43312;BME280;30041;48.300;16.352;2023-03-31T03:24:43;99222.47;;;22.15;41.34
43312;BME280;30041;48.300;16.352;2023-03-31T03:27:08;99218.97;;;22.15;41.04
43312;BME280;30041;48.300;16.352;2023-03-31T03:29:34;99214.38;;;22.15;41.19
43312;BME280;30041;48.300;16.352;2023-03-31T03:31:59;99211.13;;;22.13;41.21
43312;BME280;30041;48.300;16.352;2023-03-31T03:34:25;99206.84;;;22.17;41.04
43312;BME280;30041;48.300;16.352;2023-03-31T03:36:50;99206.28;;;22.15;41.09
43312;BME280;30041;48.300;16.352;2023-03-31T03:39:16;99209.56;;;22.17;40.94
43312;BME280;30041;48.300;16.352;2023-03-31T03:41:41;99211.44;;;22.17;41.20
43312;BME280;30041;48.300;16.352;2023-03-31T03:44:07;99206.84;;;22.17;40.97
43312;BME280;30041;48.300;16.352;2023-03-31T03:46:32;99206.84;;;22.17;40.98
43312;BME280;30041;48.300;16.352;2023-03-31T03:48:58;99207.09;;;22.16;41.11
43312;BME280;30041;48.300;16.352;2023-03-31T03:51:23;99212.50;;;22.16;41.27
43312;BME280;30041;48.300;16.352;2023-03-31T03:53:49;99209.56;;;22.17;41.18
43312;BME280;30041;48.300;16.352;2023-03-31T03:56:15;99208.47;;;22.18;41.02
43312;BME280;30041;48.300;16.352;2023-03-31T03:58:40;99206.56;;;22.19;40.92
43312;BME280;30041;48.300;16.352;2023-03-31T04:01:06;99202.81;;;22.20;41.01
43312;BME280;30041;48.300;16.352;2023-03-31T04:03:31;99203.88;;;22.19;41.02
43312;BME280;30041;48.300;16.352;2023-03-31T04:05:57;99201.47;;;22.17;41.13
43312;BME280;30041;48.300;16.352;2023-03-31T04:08:23;99199.91;;;22.22;40.96
43312;BME280;30041;48.300;16.352;2023-03-31T04:10:49;99193.44;;;22.23;41.07
43312;BME280;30041;48.300;16.352;2023-03-31T04:13:15;99190.94;;;22.21;41.10
43312;BME280;30041;48.300;16.352;2023-03-31T04:15:42;99190.38;;;22.19;41.20
43312;BME280;30041;48.300;16.352;2023-03-31T04:18:08;99186.63;;;22.20;41.08
43312;BME280;30041;48.300;16.352;2023-03-31T04:20:33;99188.25;;;22.21;41.15
43312;BME280;30041;48.300;16.352;2023-03-31T04:22:59;99189.94;;;22.22;41.15
43312;BME280;30041;48.300;16.352;2023-03-31T04:25:24;99179.69;;;22.24;41.03
43312;BME280;30041;48.300;16.352;2023-03-31T04:27:51;99187.44;;;22.21;41.17
43312;BME280;30041;48.300;16.352;2023-03-31T04:30:16;99175.63;;;22.22;41.15
43312;BME280;30041;48.300;16.352;2023-03-31T04:32:42;99182.63;;;22.23;41.12
43312;BME280;30041;48.300;16.352;2023-03-31T04:35:08;99187.78;;;22.24;41.21
43312;BME280;30041;48.300;16.352;2023-03-31T04:37:33;99187.53;;;22.26;41.19
43312;BME280;30041;48.300;16.352;2023-03-31T04:40:00;99180.50;;;22.25;41.11
43312;BME280;30041;48.300;16.352;2023-03-31T04:42:25;99175.34;;;22.23;41.11
43312;BME280;30041;48.300;16.352;2023-03-31T04:44:51;99162.41;;;22.25;41.06
43312;BME280;30041;48.300;16.352;2023-03-31T04:47:16;99157.81;;;22.26;41.12
43312;BME280;30041;48.300;16.352;2023-03-31T04:49:42;99159.47;;;22.27;40.93
43312;BME280;30041;48.300;16.352;2023-03-31T04:52:07;99155.41;;;22.24;40.96
43312;BME280;30041;48.300;16.352;2023-03-31T04:54:33;99148.66;;;22.27;41.21
43312;BME280;30041;48.300;16.352;2023-03-31T04:56:59;99155.44;;;22.29;41.12
43312;BME280;30041;48.300;16.352;2023-03-31T04:59:24;99162.97;;;22.27;40.82
43312;BME280;30041;48.300;16.352;2023-03-31T05:01:50;99142.75;;;22.30;40.85
43312;BME280;30041;48.300;16.352;2023-03-31T05:04:15;99153.00;;;22.28;41.18
43312;BME280;30041;48.300;16.352;2023-03-31T05:06:41;99150.28;;;22.28;41.12
43312;BME280;30041;48.300;16.352;2023-03-31T05:09:06;99160.28;;;22.27;41.20
43312;BME280;30041;48.300;16.352;2023-03-31T05:11:32;99150.28;;;22.28;41.14
43312;BME280;30041;48.300;16.352;2023-03-31T05:13:58;99151.13;;;22.28;41.05
43312;BME280;30041;48.300;16.352;2023-03-31T05:16:23;99144.09;;;22.27;41.19
43312;BME280;30041;48.300;16.352;2023-03-31T05:18:49;99143.28;;;22.27;41.12
43312;BME280;30041;48.300;16.352;2023-03-31T05:21:17;99144.09;;;22.27;41.23
43312;BME280;30041;48.300;16.352;2023-03-31T05:23:44;99148.44;;;22.28;41.26
43312;BME280;30041;48.300;16.352;2023-03-31T05:26:10;99142.19;;;22.28;41.07
43312;BME280;30041;48.300;16.352;2023-03-31T05:28:36;99141.13;;;22.29;41.28
43312;BME280;30041;48.300;16.352;2023-03-31T05:31:02;99141.13;;;22.29;41.26
43312;BME280;30041;48.300;16.352;2023-03-31T05:33:28;99141.94;;;22.29;41.11
43312;BME280;30041;48.300;16.352;2023-03-31T05:35:54;99135.81;;;22.39;41.48
43312;BME280;30041;48.300;16.352;2023-03-31T05:38:19;99139.88;;;22.14;43.19
43312;BME280;30041;48.300;16.352;2023-03-31T05:40:45;99134.75;;;22.13;43.30
43312;BME280;30041;48.300;16.352;2023-03-31T05:43:10;99134.19;;;22.11;43.83
43312;BME280;30041;48.300;16.352;2023-03-31T05:45:36;99128.28;;;21.92;44.20
43312;BME280;30041;48.300;16.352;2023-03-31T05:48:01;99126.31;;;21.82;43.86
43312;BME280;30041;48.300;16.352;2023-03-31T05:50:27;99121.16;;;21.81;43.97
43312;BME280;30041;48.300;16.352;2023-03-31T05:52:52;99113.53;;;21.72;44.14
43312;BME280;30041;48.300;16.352;2023-03-31T05:55:18;99113.44;;;21.67;43.94
43312;BME280;30041;48.300;16.352;2023-03-31T05:57:44;99112.97;;;21.70;43.65
43312;BME280;30041;48.300;16.352;2023-03-31T06:00:10;99105.25;;;21.79;43.07
43312;BME280;30041;48.300;16.352;2023-03-31T06:02:36;99099.75;;;21.74;42.97
43312;BME280;30041;48.300;16.352;2023-03-31T06:05:02;99098.72;;;21.75;43.34
43312;BME280;30041;48.300;16.352;2023-03-31T06:07:27;99089.72;;;21.69;43.34
43312;BME280;30041;48.300;16.352;2023-03-31T06:09:53;99087.28;;;21.68;43.66
43312;BME280;30041;48.300;16.352;2023-03-31T06:12:18;99084.03;;;21.66;43.66
43312;BME280;30041;48.300;16.352;2023-03-31T06:14:44;99085.66;;;21.67;43.46
43312;BME280;30041;48.300;16.352;2023-03-31T06:17:10;99081.06;;;21.67;43.68
43312;BME280;30041;48.300;16.352;2023-03-31T06:19:35;99080.28;;;21.67;43.72
43312;BME280;30041;48.300;16.352;2023-03-31T06:22:01;99080.03;;;21.68;43.71
43312;BME280;30041;48.300;16.352;2023-03-31T06:24:26;99078.91;;;21.64;43.29
43312;BME280;30041;48.300;16.352;2023-03-31T06:26:52;99070.75;;;21.59;43.09
43312;BME280;30041;48.300;16.352;2023-03-31T06:29:17;99074.81;;;21.62;43.45
43312;BME280;30041;48.300;16.352;2023-03-31T06:31:43;99065.09;;;21.61;43.51
43312;BME280;30041;48.300;16.352;2023-03-31T06:34:08;99045.16;;;21.62;43.66
43312;BME280;30041;48.300;16.352;2023-03-31T06:36:34;99043.53;;;21.61;43.76
43312;BME280;30041;48.300;16.352;2023-03-31T06:38:59;99046.59;;;21.69;43.06
43312;BME280;30041;48.300;16.352;2023-03-31T06:41:25;99040.50;;;21.79;43.39
43312;BME280;30041;48.300;16.352;2023-03-31T06:43:50;99042.06;;;21.75;43.33
43312;BME280;30041;48.300;16.352;2023-03-31T06:46:16;99043.88;;;21.69;43.12
43312;BME280;30041;48.300;16.352;2023-03-31T06:48:42;99042.31;;;21.73;43.30
43312;BME280;30041;48.300;16.352;2023-03-31T06:51:09;99041.50;;;21.73;43.57
43312;BME280;30041;48.300;16.352;2023-03-31T06:53:35;99040.13;;;21.70;43.56
43312;BME280;30041;48.300;16.352;2023-03-31T06:56:01;99028.84;;;21.73;43.08
43312;BME280;30041;48.300;16.352;2023-03-31T06:58:26;99032.84;;;21.71;42.18
43312;BME280;30041;48.300;16.352;2023-03-31T07:00:52;99026.13;;;21.73;41.70
43312;BME280;30041;48.300;16.352;2023-03-31T07:03:18;99019.63;;;21.69;41.60
43312;BME280;30041;48.300;16.352;2023-03-31T07:05:51;99009.59;;;21.65;41.89
43312;BME280;30041;48.300;16.352;2023-03-31T07:08:17;99006.38;;;21.68;42.09
43312;BME280;30041;48.300;16.352;2023-03-31T07:10:43;99012.03;;;21.66;42.08
43312;BME280;30041;48.300;16.352;2023-03-31T07:13:09;99002.22;;;21.55;41.29
43312;BME280;30041;48.300;16.352;2023-03-31T07:15:35;98996.25;;;21.53;41.97
43312;BME280;30041;48.300;16.352;2023-03-31T07:18:00;98987.66;;;21.56;42.27
43312;BME280;30041;48.300;16.352;2023-03-31T07:20:27;98976.63;;;21.58;42.08
43312;BME280;30041;48.300;16.352;2023-03-31T07:22:52;98973.97;;;21.63;42.32
43312;BME280;30041;48.300;16.352;2023-03-31T07:25:18;98982.19;;;21.73;41.98
43312;BME280;30041;48.300;16.352;2023-03-31T07:27:44;98981.06;;;21.69;42.19
43312;BME280;30041;48.300;16.352;2023-03-31T07:30:12;98984.00;;;21.67;40.85
43312;BME280;30041;48.300;16.352;2023-03-31T07:32:38;98976.88;;;21.56;39.99
43312;BME280;30041;48.300;16.352;2023-03-31T07:35:04;98969.25;;;21.48;39.58
43312;BME280;30041;48.300;16.352;2023-03-31T07:37:34;98961.66;;;21.45;39.42
43312;BME280;30041;48.300;16.352;2023-03-31T07:40:00;98961.56;;;21.40;39.65
43312;BME280;30041;48.300;16.352;2023-03-31T07:42:26;98951.59;;;21.40;39.27
43312;BME280;30041;48.300;16.352;2023-03-31T07:44:52;98944.78;;;21.32;39.12
43312;BME280;30041;48.300;16.352;2023-03-31T07:47:17;98942.34;;;21.31;39.15
43312;BME280;30041;48.300;16.352;2023-03-31T07:49:43;98943.16;;;21.31;38.69
43312;BME280;30041;48.300;16.352;2023-03-31T07:52:08;98928.63;;;21.32;38.86
43312;BME280;30041;48.300;16.352;2023-03-31T07:54:34;98926.69;;;21.28;39.26
43312;BME280;30041;48.300;16.352;2023-03-31T07:56:59;98925.38;;;21.30;38.92
43312;BME280;30041;48.300;16.352;2023-03-31T07:59:25;98927.94;;;21.20;39.57
43312;BME280;30041;48.300;16.352;2023-03-31T08:01:51;98926.56;;;21.18;39.37
43312;BME280;30041;48.300;16.352;2023-03-31T08:04:16;98921.75;;;21.20;39.51
43312;BME280;30041;48.300;16.352;2023-03-31T08:06:42;98919.06;;;21.20;39.49
43312;BME280;30041;48.300;16.352;2023-03-31T08:09:07;98911.88;;;21.30;39.65
43312;BME280;30041;48.300;16.352;2023-03-31T08:11:33;98905.09;;;21.50;39.55
43312;BME280;30041;48.300;16.352;2023-03-31T08:13:58;98907.72;;;21.72;39.22
43312;BME280;30041;48.300;16.352;2023-03-31T08:16:24;98902.09;;;21.79;39.41
43312;BME280;30041;48.300;16.352;2023-03-31T08:18:50;98901.59;;;21.82;39.40
43312;BME280;30041;48.300;16.352;2023-03-31T08:21:15;98897.06;;;21.87;39.50
43312;BME280;30041;48.300;16.352;2023-03-31T08:23:41;98895.22;;;21.93;39.77
43312;BME280;30041;48.300;16.352;2023-03-31T08:26:15;98887.13;;;21.93;39.84
43312;BME280;30041;48.300;16.352;2023-03-31T08:28:40;98884.47;;;21.98;40.09
43312;BME280;30041;48.300;16.352;2023-03-31T08:31:07;98884.22;;;22.00;40.23
43312;BME280;30041;48.300;16.352;2023-03-31T08:33:33;98877.97;;;21.99;40.26
43312;BME280;30041;48.300;16.352;2023-03-31T08:36:03;98867.19;;;21.99;40.40
43312;BME280;30041;48.300;16.352;2023-03-31T08:38:29;98865.59;;;22.03;40.25
43312;BME280;30041;48.300;16.352;2023-03-31T08:40:59;98859.16;;;22.04;40.17
43312;BME280;30041;48.300;16.352;2023-03-31T08:43:29;98857.56;;;22.08;40.32
43312;BME280;30041;48.300;16.352;2023-03-31T08:45:56;98852.16;;;22.08;40.36
43312;BME280;30041;48.300;16.352;2023-03-31T08:48:29;98848.28;;;21.94;41.18
43312;BME280;30041;48.300;16.352;2023-03-31T08:51:19;98842.22;;;21.76;41.08
43312;BME280;30041;48.300;16.352;2023-03-31T08:53:56;98839.72;;;21.70;41.20
43312;BME280;30041;48.300;16.352;2023-03-31T08:56:25;98840.00;;;21.68;41.06
43312;BME280;30041;48.300;16.352;2023-03-31T08:58:52;98838.16;;;21.74;41.54
43312;BME280;30041;48.300;16.352;2023-03-31T09:01:41;98833.28;;;21.71;41.45
43312;BME280;30041;48.300;16.352;2023-03-31T09:07:25;98820.06;;;21.74;42.05
43312;BME280;30041;48.300;16.352;2023-03-31T09:15:52;98796.66;;;21.75;41.92
43312;BME280;30041;48.300;16.352;2023-03-31T09:18:29;98789.59;;;21.74;42.05
43312;BME280;30041;48.300;16.352;2023-03-31T09:24:22;98794.72;;;21.70;42.20
43312;BME280;30041;48.300;16.352;2023-03-31T09:26:59;98797.66;;;21.69;42.36
43312;BME280;30041;48.300;16.352;2023-03-31T09:29:33;98795.53;;;21.71;42.24
43312;BME280;30041;48.300;16.352;2023-03-31T09:32:24;98794.72;;;21.70;42.19
43312;BME280;30041;48.300;16.352;2023-03-31T09:34:53;98798.22;;;21.71;42.33
43312;BME280;30041;48.300;16.352;2023-03-31T09:37:20;98786.06;;;21.68;42.53
43312;BME280;30041;48.300;16.352;2023-03-31T09:39:46;98785.53;;;21.71;42.39
43312;BME280;30041;48.300;16.352;2023-03-31T09:42:12;98778.53;;;21.70;42.43
43312;BME280;30041;48.300;16.352;2023-03-31T09:44:47;98773.66;;;21.67;42.46
43312;BME280;30041;48.300;16.352;2023-03-31T09:47:28;98760.16;;;21.67;42.44
43312;BME280;30041;48.300;16.352;2023-03-31T09:49:56;98751.03;;;21.68;42.51
43312;BME280;30041;48.300;16.352;2023-03-31T09:52:31;98755.56;;;21.68;42.44
43312;BME280;30041;48.300;16.352;2023-03-31T09:55:02;98745.88;;;21.67;42.39
43312;BME280;30041;48.300;16.352;2023-03-31T09:57:32;98743.75;;;21.69;42.36
43312;BME280;30041;48.300;16.352;2023-03-31T10:00:04;98744.53;;;21.69;42.40
43312;BME280;30041;48.300;16.352;2023-03-31T10:02:36;98731.81;;;21.60;42.18
43312;BME280;30041;48.300;16.352;2023-03-31T10:05:03;98724.56;;;21.65;42.45
43312;BME280;30041;48.300;16.352;2023-03-31T10:07:30;98720.25;;;21.64;42.12
43312;BME280;30041;48.300;16.352;2023-03-31T10:09:56;98720.75;;;21.61;42.23
43312;BME280;30041;48.300;16.352;2023-03-31T10:12:27;98721.59;;;21.62;42.58
43312;BME280;30041;48.300;16.352;2023-03-31T10:15:01;98718.63;;;21.63;42.66
43312;BME280;30041;48.300;16.352;2023-03-31T10:17:27;98720.00;;;21.66;42.44
43312;BME280;30041;48.300;16.352;2023-03-31T10:19:56;98719.16;;;21.65;42.74
43312;BME280;30041;48.300;16.352;2023-03-31T10:24:49;98714.84;;;21.64;42.67
43312;BME280;30041;48.300;16.352;2023-03-31T10:27:27;98702.72;;;21.62;42.85
43312;BME280;30041;48.300;16.352;2023-03-31T10:30:03;98689.22;;;21.62;42.71
43312;BME280;30041;48.300;16.352;2023-03-31T10:32:38;98698.16;;;21.67;42.73
43312;BME280;30041;48.300;16.352;2023-03-31T10:35:21;98702.25;;;21.75;42.64
43312;BME280;30041;48.300;16.352;2023-03-31T10:37:50;98705.44;;;21.72;42.87
43312;BME280;30041;48.300;16.352;2023-03-31T10:40:22;98703.22;;;21.59;43.17
43312;BME280;30041;48.300;16.352;2023-03-31T10:43:01;98690.50;;;21.49;43.37
43312;BME280;30041;48.300;16.352;2023-03-31T10:45:30;98689.94;;;21.47;43.53
43312;BME280;30041;48.300;16.352;2023-03-31T10:47:58;98696.91;;;21.43;43.64
43312;BME280;30041;48.300;16.352;2023-03-31T10:50:33;98690.47;;;21.44;43.61
43312;BME280;30041;48.300;16.352;2023-03-31T10:53:04;98698.22;;;21.40;43.62
43312;BME280;30041;48.300;16.352;2023-03-31T10:55:37;98715.72;;;21.38;43.54
43312;BME280;30041;48.300;16.352;2023-03-31T11:00:58;98712.88;;;21.49;43.22
43312;BME280;30041;48.300;16.352;2023-03-31T11:03:49;98702.59;;;21.41;42.90
43312;BME280;30041;48.300;16.352;2023-03-31T11:06:48;98699.91;;;21.41;42.66
43312;BME280;30041;48.300;16.352;2023-03-31T11:12:39;98676.78;;;21.50;43.42
43312;BME280;30041;48.300;16.352;2023-03-31T11:27:36;98627.84;;;21.36;44.15
43312;BME280;30041;48.300;16.352;2023-03-31T11:33:20;98586.69;;;21.41;43.87
43312;BME280;30041;48.300;16.352;2023-03-31T11:35:45;98568.63;;;21.47;44.17
43312;BME280;30041;48.300;16.352;2023-03-31T11:38:19;98561.34;;;21.47;43.92
43312;BME280;30041;48.300;16.352;2023-03-31T11:43:34;98562.47;;;21.56;43.88
43312;BME280;30041;48.300;16.352;2023-03-31T11:46:08;98550.31;;;21.49;43.67
43312;BME280;30041;48.300;16.352;2023-03-31T11:51:39;98531.94;;;21.41;43.74
43312;BME280;30041;48.300;16.352;2023-03-31T11:54:06;98518.69;;;21.34;43.61
43312;BME280;30041;48.300;16.352;2023-03-31T11:56:38;98512.78;;;21.37;43.86
43312;BME280;30041;48.300;16.352;2023-03-31T11:59:06;98497.13;;;21.34;43.92
43312;BME280;30041;48.300;16.352;2023-03-31T12:01:54;98494.16;;;21.30;43.94
43312;BME280;30041;48.300;16.352;2023-03-31T12:04:52;98477.44;;;21.28;43.97
43312;BME280;30041;48.300;16.352;2023-03-31T12:07:29;98472.59;;;21.30;44.13
43312;BME280;30041;48.300;16.352;2023-03-31T12:11:15;98462.09;;;21.29;44.02
43312;BME280;30041;48.300;16.352;2023-03-31T12:16:12;98469.59;;;21.22;42.46
43312;BME280;30041;48.300;16.352;2023-03-31T12:21:22;98469.06;;;21.20;42.98
43312;BME280;30041;48.300;16.352;2023-03-31T12:23:50;98478.56;;;21.38;42.80
43312;BME280;30041;48.300;16.352;2023-03-31T12:26:49;98471.91;;;21.61;42.12
43312;BME280;30041;48.300;16.352;2023-03-31T12:31:44;98476.81;;;21.84;41.62
43312;BME280;30041;48.300;16.352;2023-03-31T12:34:13;98477.59;;;21.90;41.61
43312;BME280;30041;48.300;16.352;2023-03-31T12:36:59;98452.16;;;21.40;42.75
43312;BME280;30041;48.300;16.352;2023-03-31T12:51:13;98458.44;;;21.81;41.95
43312;BME280;30041;48.300;16.352;2023-03-31T12:59:34;98459.81;;;21.94;41.71
43312;BME280;30041;48.300;16.352;2023-03-31T13:04:36;98439.31;;;21.93;42.17
43312;BME280;30041;48.300;16.352;2023-03-31T13:07:03;98442.81;;;21.88;42.12
43312;BME280;30041;48.300;16.352;2023-03-31T13:11:58;98423.91;;;21.83;42.29
43312;BME280;30041;48.300;16.352;2023-03-31T13:14:38;98418.53;;;21.78;42.25
43312;BME280;30041;48.300;16.352;2023-03-31T13:17:56;98404.25;;;21.72;42.48
43312;BME280;30041;48.300;16.352;2023-03-31T13:22:59;98391.56;;;21.98;41.69
43312;BME280;30041;48.300;16.352;2023-03-31T13:27:55;98362.41;;;22.11;41.63
43312;BME280;30041;48.300;16.352;2023-03-31T13:33:15;98374.53;;;22.18;41.45
43312;BME280;30041;48.300;16.352;2023-03-31T13:35:47;98361.84;;;22.19;41.44
43312;BME280;30041;48.300;16.352;2023-03-31T13:38:34;98361.59;;;22.21;41.53
43312;BME280;30041;48.300;16.352;2023-03-31T13:41:27;98355.38;;;22.20;41.24
43312;BME280;30041;48.300;16.352;2023-03-31T13:47:13;98363.25;;;22.22;41.30
43312;BME280;30041;48.300;16.352;2023-03-31T13:52:11;98361.31;;;22.27;41.16
43312;BME280;30041;48.300;16.352;2023-03-31T13:54:53;98350.53;;;22.27;41.62
43312;BME280;30041;48.300;16.352;2023-03-31T14:00:26;98353.78;;;22.29;41.27
43312;BME280;30041;48.300;16.352;2023-03-31T14:03:04;98342.16;;;22.29;41.17
43312;BME280;30041;48.300;16.352;2023-03-31T14:05:42;98342.72;;;22.31;41.27
43312;BME280;30041;48.300;16.352;2023-03-31T14:11:35;98327.88;;;22.28;41.39
43312;BME280;30041;48.300;16.352;2023-03-31T14:14:17;98322.97;;;22.30;41.31
43312;BME280;30041;48.300;16.352;2023-03-31T14:16:50;98314.88;;;22.30;41.18
43312;BME280;30041;48.300;16.352;2023-03-31T14:25:17;98324.06;;;22.34;41.24
43312;BME280;30041;48.300;16.352;2023-03-31T14:31:11;98326.75;;;22.34;40.97
43312;BME280;30041;48.300;16.352;2023-03-31T14:39:10;98333.28;;;22.08;39.80
43312;BME280;30041;48.300;16.352;2023-03-31T14:41:36;98334.66;;;21.90;40.77
43312;BME280;30041;48.300;16.352;2023-03-31T14:44:04;98324.69;;;21.80;38.97
43312;BME280;30041;48.300;16.352;2023-03-31T14:46:34;98322.78;;;21.91;39.57
43312;BME280;30041;48.300;16.352;2023-03-31T14:49:14;98331.41;;;21.98;40.01
43312;BME280;30041;48.300;16.352;2023-03-31T14:51:43;98319.78;;;22.03;40.31
43312;BME280;30041;48.300;16.352;2023-03-31T14:54:17;98315.75;;;22.05;40.22
43312;BME280;30041;48.300;16.352;2023-03-31T14:56:44;98316.00;;;22.09;40.25
43312;BME280;30041;48.300;16.352;2023-03-31T14:59:28;98321.66;;;22.07;40.34
43312;BME280;30041;48.300;16.352;2023-03-31T15:01:59;98316.00;;;22.09;40.47
43312;BME280;30041;48.300;16.352;2023-03-31T15:04:28;98331.19;;;21.64;41.47
43312;BME280;30041;48.300;16.352;2023-03-31T15:06:54;98336.28;;;21.60;40.18
43312;BME280;30041;48.300;16.352;2023-03-31T15:09:28;98331.38;;;21.36;39.05
43312;BME280;30041;48.300;16.352;2023-03-31T15:11:59;98329.53;;;21.37;40.95
43312;BME280;30041;48.300;16.352;2023-03-31T15:14:31;98327.09;;;21.35;40.61
43312;BME280;30041;48.300;16.352;2023-03-31T15:16:57;98354.03;;;21.30;41.20
43312;BME280;30041;48.300;16.352;2023-03-31T15:19:33;98346.75;;;21.26;40.44
43312;BME280;30041;48.300;16.352;2023-03-31T15:22:08;98383.94;;;21.24;40.43